Time;durP1;ratioP1;P1;durP2;ratioP2;P2;SDS_P1;SDS_P2;PMS_P1;PMS_P2;Temp;Humidity;BMP_temperature;BMP_pressure;BME280_temperature;BME280_humidity;BME280_pressure;Samples;Min_cycle;Max_cycle;Signal;HPM_P1;HPM_P2
2023/09/02 00:00:59;;;;;;;5.50;3.95;;;13.20;99.90;;;;;;5078802;27;20679;-86
2023/09/02 00:03:24;;;;;;;4.97;3.92;;;14.50;99.90;;;;;;5068995;27;20052;-86
2023/09/02 00:05:50;;;;;;;5.32;3.65;;;13.10;99.90;;;;;;5077150;27;20100;-85
2023/09/02 00:08:16;;;;;;;5.88;3.88;;;13.10;99.90;;;;;;5069853;27;20070;-85
2023/09/02 00:10:41;;;;;;;4.97;3.70;;;13.10;99.90;;;;;;5069966;27;20039;-85
2023/09/02 00:13:07;;;;;;;4.65;3.78;;;13.10;99.90;;;;;;5085175;27;20452;-85
2023/09/02 00:15:33;;;;;;;5.28;3.20;;;13.10;99.90;;;;;;5078293;27;20046;-85
2023/09/02 00:17:59;;;;;;;4.38;3.05;;;13.10;99.90;;;;;;5077824;27;20150;-85
2023/09/02 00:20:24;;;;;;;4.10;3.35;;;13.10;99.90;;;;;;5074901;27;20082;-86
2023/09/02 00:22:50;;;;;;;4.57;3.13;;;13.10;99.90;;;;;;5076164;27;20530;-86
2023/09/02 00:25:16;;;;;;;3.40;2.78;;;13.10;99.90;;;;;;5076112;27;20047;-89
2023/09/02 00:27:42;;;;;;;4.20;2.90;;;13.10;99.90;;;;;;5071365;27;20039;-89
2023/09/02 00:30:08;;;;;;;4.85;2.97;;;13.00;99.90;;;;;;5087337;27;20047;-89
2023/09/02 00:32:34;;;;;;;4.95;3.63;;;12.80;99.90;;;;;;5078444;27;20147;-89
2023/09/02 00:34:59;;;;;;;4.53;3.33;;;12.80;99.90;;;;;;5070359;27;20144;-88
2023/09/02 00:37:25;;;;;;;3.20;2.75;;;12.70;99.90;;;;;;5069120;27;20051;-88
2023/09/02 00:39:51;;;;;;;4.70;3.15;;;;;;;;;;5070019;27;20185;-88
2023/09/02 00:42:19;;;;;;;5.60;3.20;;;12.60;99.90;;;;;;5079304;27;20400;-89
2023/09/02 00:44:47;;;;;;;3.95;3.13;;;12.50;99.90;;;;;;5076281;27;20157;-88
2023/09/02 00:47:13;;;;;;;4.07;3.20;;;12.40;99.90;;;;;;5092795;27;20642;-89
2023/09/02 00:49:39;;;;;;;3.50;2.88;;;12.40;99.90;;;;;;5077161;27;20096;-89
2023/09/02 00:52:05;;;;;;;4.05;3.17;;;12.30;99.90;;;;;;5077479;27;20035;-88
2023/09/02 00:54:33;;;;;;;4.75;3.55;;;12.30;99.90;;;;;;5080026;27;20067;-87
2023/09/02 00:56:59;;;;;;;4.63;3.85;;;12.30;99.90;;;;;;5077210;27;20491;-88
2023/09/02 00:59:24;;;;;;;6.57;4.20;;;12.30;99.90;;;;;;5069846;27;20709;-88
2023/09/02 01:01:51;;;;;;;5.00;4.05;;;12.30;99.90;;;;;;5085902;27;20072;-89
2023/09/02 01:04:17;;;;;;;4.55;3.83;;;12.30;99.90;;;;;;5076101;27;20361;-88
2023/09/02 01:06:44;;;;;;;7.47;4.40;;;12.30;99.90;;;;;;5076247;27;20039;-88
2023/09/02 01:09:10;;;;;;;4.95;3.63;;;12.20;99.90;;;;;;5092603;27;20046;-88
2023/09/02 01:11:36;;;;;;;3.63;3.22;;;12.20;99.90;;;;;;5093064;27;20121;-89
2023/09/02 01:14:02;;;;;;;5.20;3.72;;;12.10;99.90;;;;;;5073201;27;20550;-88
2023/09/02 01:16:29;;;;;;;5.80;4.60;;;12.10;99.90;;;;;;5092092;27;20043;-88
2023/09/02 01:18:55;;;;;;;5.03;4.07;;;12.20;99.90;;;;;;5067372;27;20075;-88
2023/09/02 01:21:27;;;;;;;4.72;3.95;;;12.20;99.90;;;;;;5051442;27;20104;-89
2023/09/02 01:24:28;;;;;;;3.65;3.20;;;12.20;99.90;;;;;;5101420;27;20051;-89
2023/09/02 01:27:06;;;;;;;4.82;3.85;;;12.20;99.90;;;;;;5076160;27;20519;-89
2023/09/02 01:29:35;;;;;;;5.93;4.20;;;12.10;99.90;;;;;;5077146;27;20066;-89
2023/09/02 01:32:04;;;;;;;5.03;4.38;;;12.10;99.90;;;;;;5071610;27;20043;-89
2023/09/02 01:34:33;;;;;;;3.25;2.95;;;;;;;;;;5076949;27;20046;-89
2023/09/02 01:37:00;;;;;;;5.18;3.28;;;11.90;99.90;;;;;;5077490;27;20138;-89
2023/09/02 01:39:29;;;;;;;4.32;3.80;;;12.00;99.90;;;;;;5091782;27;20034;-90
2023/09/02 01:41:56;;;;;;;4.03;3.33;;;11.90;99.90;;;;;;5061853;27;21030;-89
2023/09/02 01:44:23;;;;;;;3.28;2.85;;;11.90;99.90;;;;;;5060688;28;20051;-89
2023/09/02 01:46:49;;;;;;;3.78;2.55;;;11.80;99.90;;;;;;5050080;27;20107;-89
2023/09/02 01:49:16;;;;;;;3.00;2.60;;;11.80;99.90;;;;;;5060044;27;20229;-90
2023/09/02 01:51:43;;;;;;;3.20;2.87;;;11.70;99.90;;;;;;5092437;27;20112;-90
2023/09/02 01:54:09;;;;;;;4.15;3.00;;;11.60;99.90;;;;;;5058066;28;20047;-90
2023/09/02 01:56:36;;;;;;;4.78;3.97;;;11.60;99.90;;;;;;5052260;27;20047;-89
2023/09/02 01:59:01;;;;;;;5.25;3.20;;;11.60;99.90;;;;;;5084519;27;20043;-90
2023/09/02 02:01:27;;;;;;;3.70;3.28;;;11.60;99.90;;;;;;5052654;27;20128;-89
2023/09/02 02:04:14;;;;;;;3.83;3.22;;;11.50;99.90;;;;;;5067879;28;20113;-90
2023/09/02 02:06:41;;;;;;;3.97;3.30;;;11.40;99.90;;;;;;5095848;27;20039;-89
2023/09/02 02:09:12;;;;;;;;;;;11.40;99.90;;;;;;5069991;27;20129;-89
2023/09/02 02:11:38;;;;;;;4.63;3.92;;;11.50;99.90;;;;;;5103617;27;19924;-89
2023/09/02 02:14:06;;;;;;;4.32;3.78;;;11.40;99.90;;;;;;5099417;27;20080;-89
2023/09/02 02:16:32;;;;;;;4.60;4.00;;;11.40;99.90;;;;;;5078149;27;20043;-88
2023/09/02 02:18:59;;;;;;;4.90;3.47;;;11.40;99.90;;;;;;5077579;27;20071;-89
2023/09/02 02:21:26;;;;;;;5.50;4.20;;;11.40;99.90;;;;;;5076912;27;20435;-88
2023/09/02 02:23:52;;;;;;;4.53;3.85;;;11.40;99.90;;;;;;5080904;27;20113;-88
2023/09/02 02:26:18;;;;;;;4.75;3.42;;;11.40;99.90;;;;;;5073358;27;20365;-89
2023/09/02 02:28:44;;;;;;;5.22;3.80;;;11.40;99.90;;;;;;5077620;27;20066;-88
2023/09/02 02:31:09;;;;;;;5.15;3.88;;;11.50;99.90;;;;;;5081896;27;20456;-89
2023/09/02 02:33:39;;;;;;;5.15;4.45;;;11.50;99.90;;;;;;5079187;27;20050;-89
2023/09/02 02:36:05;;;;;;;4.60;4.10;;;11.50;99.90;;;;;;5079686;27;20050;-89
2023/09/02 02:38:31;;;;;;;4.43;3.70;;;11.50;99.90;;;;;;5113297;27;20113;-88
2023/09/02 02:40:57;;;;;;;4.70;4.00;;;11.40;99.90;;;;;;5098640;27;21657;-88
2023/09/02 02:43:26;;;;;;;5.13;3.95;;;11.50;99.90;;;;;;5079074;27;20051;-88
2023/09/02 02:45:55;;;;;;;5.72;4.20;;;11.50;99.90;;;;;;5084071;27;20031;-88
2023/09/02 02:48:30;;;;;;;4.10;3.63;;;11.60;99.90;;;;;;5114000;27;20043;-88
2023/09/02 02:50:56;;;;;;;3.92;3.25;;;11.50;99.90;;;;;;5095752;27;20039;-88
2023/09/02 02:53:22;;;;;;;4.80;4.00;;;11.60;99.90;;;;;;5085019;27;20135;-88
2023/09/02 02:55:48;;;;;;;5.13;4.20;;;11.60;99.90;;;;;;5076188;27;20666;-88
2023/09/02 02:58:15;;;;;;;6.15;4.20;;;11.60;99.90;;;;;;5102241;27;20568;-89
2023/09/02 03:00:46;;;;;;;6.82;4.97;;;11.60;99.90;;;;;;5076825;27;20031;-88
2023/09/02 03:03:12;;;;;;;7.95;5.78;;;11.70;99.90;;;;;;5100551;27;20324;-88
2023/09/02 03:05:39;;;;;;;8.27;6.30;;;11.70;99.90;;;;;;5102201;27;20131;-88
2023/09/02 03:08:09;;;;;;;7.47;5.35;;;11.70;99.90;;;;;;5100073;27;20054;-87
2023/09/02 03:10:36;;;;;;;8.80;6.00;;;11.70;99.90;;;;;;5097506;27;20122;-87
2023/09/02 03:13:02;;;;;;;9.40;6.07;;;11.60;99.90;;;;;;5101824;27;20477;-88
2023/09/02 03:15:28;;;;;;;8.77;5.35;;;11.70;99.90;;;;;;5100459;27;20073;-88
2023/09/02 03:17:54;;;;;;;10.45;6.28;;;11.70;99.90;;;;;;5081064;27;20050;-87
2023/09/02 03:20:20;;;;;;;9.77;6.63;;;11.70;99.90;;;;;;5074158;27;20047;-87
2023/09/02 03:22:46;;;;;;;12.68;7.95;;;11.70;99.90;;;;;;5073848;27;20443;-88
2023/09/02 03:25:12;;;;;;;11.90;8.52;;;11.60;99.90;;;;;;5098485;27;20051;-88
2023/09/02 03:27:41;;;;;;;13.75;7.82;;;11.70;99.90;;;;;;5082096;27;20469;-88
2023/09/02 03:30:08;;;;;;;10.32;7.00;;;11.70;99.90;;;;;;5099198;27;20074;-87
2023/09/02 03:32:34;;;;;;;9.15;5.90;;;11.70;99.90;;;;;;5100500;27;20236;-87
2023/09/02 03:35:01;;;;;;;7.97;5.85;;;11.60;99.90;;;;;;5100133;27;20046;-88
2023/09/02 03:37:27;;;;;;;6.97;5.10;;;11.60;99.90;;;;;;5101328;27;20043;-87
2023/09/02 03:39:57;;;;;;;7.45;5.70;;;11.60;99.90;;;;;;5079454;27;20063;-87
2023/09/02 03:42:22;;;;;;;4.18;3.42;;;11.60;99.90;;;;;;5064972;27;20359;-88
2023/09/02 03:44:48;;;;;;;13.50;3.03;;;11.60;99.90;;;;;;5083947;27;20533;-88
2023/09/02 03:47:14;;;;;;;2.28;1.90;;;11.60;99.90;;;;;;5100944;27;20102;-87
2023/09/02 03:49:40;;;;;;;2.53;2.00;;;11.50;99.90;;;;;;5096912;27;20282;-88
2023/09/02 03:52:06;;;;;;;4.78;2.75;;;11.50;99.90;;;;;;5082958;27;20050;-87
2023/09/02 03:54:36;;;;;;;2.20;1.70;;;11.40;99.90;;;;;;5100857;27;20050;-87
2023/09/02 03:57:02;;;;;;;2.13;1.60;;;11.50;99.90;;;;;;5095797;27;20122;-87
2023/09/02 03:59:28;;;;;;;2.40;1.90;;;11.50;99.90;;;;;;5085192;27;20512;-87
2023/09/02 04:01:54;;;;;;;2.13;1.70;;;11.50;99.90;;;;;;5096935;27;20035;-86
2023/09/02 04:04:20;;;;;;;1.88;1.70;;;11.50;99.90;;;;;;5090604;27;20042;-87
2023/09/02 04:06:46;;;;;;;4.38;2.90;;;11.40;99.90;;;;;;5073013;27;20574;-87
2023/09/02 04:09:12;;;;;;;4.10;3.38;;;11.40;99.90;;;;;;5061362;27;20078;-87
2023/09/02 04:11:37;;;;;;;4.00;3.00;;;11.40;99.90;;;;;;5082270;27;20058;-88
2023/09/02 04:14:03;;;;;;;4.70;3.40;;;11.40;99.90;;;;;;5072334;27;20051;-87
2023/09/02 04:16:29;;;;;;;3.88;3.10;;;11.40;99.90;;;;;;5072771;27;20038;-87
2023/09/02 04:18:55;;;;;;;4.50;4.05;;;11.40;99.90;;;;;;5089877;27;20501;-87
2023/09/02 04:21:23;;;;;;;4.88;4.05;;;11.40;99.90;;;;;;5073099;27;20069;-88
2023/09/02 04:23:49;;;;;;;5.28;3.85;;;11.50;99.90;;;;;;5079498;27;20043;-87
2023/09/02 04:26:14;;;;;;;4.63;3.92;;;11.50;99.90;;;;;;5080867;27;20027;-87
2023/09/02 04:28:40;;;;;;;4.25;3.72;;;11.50;99.90;;;;;;5099329;27;20045;-88
2023/09/02 04:31:06;;;;;;;4.70;3.53;;;11.50;99.90;;;;;;5083194;27;20035;-87
2023/09/02 04:33:32;;;;;;;6.13;4.53;;;11.50;99.90;;;;;;5072765;27;20288;-87
2023/09/02 04:36:00;;;;;;;5.72;4.38;;;11.50;99.90;;;;;;5081672;27;20159;-87
2023/09/02 04:38:26;;;;;;;7.60;4.78;;;11.40;99.90;;;;;;5096234;27;20049;-87
2023/09/02 04:40:51;;;;;;;6.85;4.80;;;11.40;99.90;;;;;;5096865;27;20437;-88
2023/09/02 04:43:17;;;;;;;5.82;4.88;;;11.40;99.90;;;;;;5072588;27;20095;-88
2023/09/02 04:45:43;;;;;;;8.32;5.80;;;11.40;99.90;;;;;;5080544;27;20031;-87
2023/09/02 04:48:10;;;;;;;6.28;5.35;;;11.40;99.90;;;;;;5072275;27;20046;-87
2023/09/02 04:50:37;;;;;;;6.57;5.60;;;9.90;99.90;;;;;;5080714;27;20508;-87
2023/09/02 04:53:03;;;;;;;8.85;5.63;;;11.40;99.90;;;;;;5076104;27;20039;-87
2023/09/02 04:55:29;;;;;;;10.50;7.55;;;11.50;99.90;;;;;;5097895;27;20422;-87
2023/09/02 04:57:56;;;;;;;13.30;9.38;;;11.50;99.90;;;;;;5078359;27;20035;-87
2023/09/02 05:00:28;;;;;;;13.80;8.73;;;11.50;99.90;;;;;;5078402;27;20047;-87
2023/09/02 05:02:55;;;;;;;12.27;8.43;;;11.60;99.90;;;;;;5082824;27;20075;-87
2023/09/02 05:05:22;;;;;;;12.32;9.23;;;11.60;99.90;;;;;;5098276;27;20107;-87
2023/09/02 05:07:49;;;;;;;11.57;9.15;;;11.60;99.90;;;;;;5077431;27;21143;-87
2023/09/02 05:10:16;;;;;;;9.13;7.07;;;11.70;99.90;;;;;;5098878;27;20117;-87
2023/09/02 05:12:42;;;;;;;10.80;7.95;;;11.70;99.90;;;;;;5096449;27;20051;-87
2023/09/02 05:15:09;;;;;;;10.30;8.20;;;11.80;99.90;;;;;;5078948;27;20043;-86
2023/09/02 05:17:34;;;;;;;11.73;8.13;;;11.80;99.90;;;;;;5096607;27;20039;-87
2023/09/02 05:20:03;;;;;;;11.48;8.27;;;11.90;99.90;;;;;;5095247;27;20047;-87
2023/09/02 05:22:29;;;;;;;11.07;8.60;;;11.90;99.90;;;;;;5095276;27;20545;-86
2023/09/02 05:24:55;;;;;;;11.80;8.43;;;12.00;99.90;;;;;;5079275;27;20091;-87
2023/09/02 05:27:21;;;;;;;11.93;7.95;;;12.00;99.90;;;;;;5079752;27;20461;-87
2023/09/02 05:29:47;;;;;;;9.93;6.80;;;12.00;99.90;;;;;;5093755;27;20171;-88
2023/09/02 05:32:14;;;;;;;11.15;6.97;;;12.10;99.90;;;;;;5096004;27;20509;-87
2023/09/02 05:34:40;;;;;;;9.88;7.50;;;12.10;99.90;;;;;;5104329;27;20473;-87
2023/09/02 05:37:06;;;;;;;9.68;6.85;;;12.10;99.90;;;;;;5076297;27;20106;-87
2023/09/02 05:39:32;;;;;;;10.10;6.55;;;12.20;99.90;;;;;;5090685;27;20050;-87
2023/09/02 05:41:58;;;;;;;7.70;5.75;;;12.20;99.90;;;;;;5095596;27;20229;-87
2023/09/02 05:44:23;;;;;;;7.63;5.93;;;12.30;99.90;;;;;;5096022;27;20486;-87
2023/09/02 05:46:49;;;;;;;5.70;4.93;;;12.40;99.90;;;;;;5072343;27;20041;-87
2023/09/02 05:49:15;;;;;;;8.05;5.50;;;12.40;99.90;;;;;;5091549;27;20039;-87
2023/09/02 05:51:42;;;;;;;6.80;5.63;;;12.40;99.90;;;;;;5076286;27;20574;-88
2023/09/02 05:54:09;;;;;;;8.40;5.50;;;12.50;99.90;;;;;;5095104;27;20046;-87
2023/09/02 05:56:36;;;;;;;7.88;5.18;;;12.60;99.90;;;;;;5089269;27;20404;-88
2023/09/02 05:59:02;;;;;;;7.57;5.15;;;12.70;99.90;;;;;;5079388;27;20169;-88
2023/09/02 06:01:28;;;;;;;5.57;4.85;;;12.80;99.90;;;;;;5079737;27;20062;-89
2023/09/02 06:03:54;;;;;;;7.07;4.60;;;12.90;99.90;;;;;;5080319;27;20084;-88
2023/09/02 06:06:19;;;;;;;8.50;4.30;;;12.90;99.90;;;;;;5096260;27;20042;-88
2023/09/02 06:08:45;;;;;;;5.75;4.38;;;12.90;99.90;;;;;;5081497;27;20050;-88
2023/09/02 06:11:11;;;;;;;6.88;4.15;;;12.90;99.90;;;;;;5077611;27;20047;-88
2023/09/02 06:13:37;;;;;;;6.03;4.15;;;13.00;99.90;;;;;;5091277;27;20051;-89
2023/09/02 06:16:04;;;;;;;5.30;3.80;;;13.10;99.90;;;;;;5072493;27;20082;-89
2023/09/02 06:18:31;;;;;;;5.50;3.63;;;13.20;99.90;;;;;;5095701;27;20067;-89
2023/09/02 06:20:57;;;;;;;6.07;4.00;;;13.30;99.90;;;;;;5096224;27;20050;-89
2023/09/02 06:23:24;;;;;;;5.45;4.40;;;13.50;99.90;;;;;;5098670;27;20038;-89
2023/09/02 06:25:57;;;;;;;5.72;5.07;;;13.90;99.90;;;;;;5096424;27;20038;-88
2023/09/02 06:28:24;;;;;;;8.73;5.75;;;14.40;99.90;;;;;;5096529;27;20039;-88
2023/09/02 06:30:50;;;;;;;6.57;5.22;;;15.10;99.90;;;;;;5096882;27;20039;-87
2023/09/02 06:33:16;;;;;;;7.13;5.85;;;15.50;99.90;;;;;;5076132;27;20039;-88
2023/09/02 06:35:42;;;;;;;8.00;5.60;;;;;;;;;;5103648;27;20053;-88
2023/09/02 06:38:08;;;;;;;6.47;5.30;;;17.00;99.90;;;;;;5081686;27;20119;-88
2023/09/02 06:40:34;;;;;;;6.00;5.35;;;17.10;99.90;;;;;;5082752;27;20101;-92
2023/09/02 06:43:00;;;;;;;6.65;4.90;;;16.90;99.90;;;;;;5072468;27;20046;-87
2023/09/02 06:45:26;;;;;;;5.97;5.38;;;16.80;99.90;;;;;;5070882;27;20035;-89
2023/09/02 06:47:52;;;;;;;8.52;6.07;;;16.70;99.90;;;;;;5095733;27;20497;-89
2023/09/02 06:50:17;;;;;;;9.32;5.95;;;16.70;99.90;;;;;;5080236;27;20047;-90
2023/09/02 06:52:43;;;;;;;6.88;5.70;;;16.70;99.90;;;;;;5096023;27;20553;-87
2023/09/02 06:55:09;;;;;;;8.40;7.53;;;16.70;99.90;;;;;;5082651;27;20114;-89
2023/09/02 06:57:35;;;;;;;10.90;9.80;;;;;;;;;;5095923;27;20573;-90
2023/09/02 07:00:01;;;;;;;18.70;15.10;;;;;;;;;;5095352;27;20425;-94
2023/09/02 07:02:28;;;;;;;12.70;11.05;;;;;;;;;;5080203;27;20039;-92
2023/09/02 07:04:53;;;;;;;9.75;8.25;;;17.40;99.90;;;;;;5098409;27;20041;-92
2023/09/02 07:07:27;;;;;;;8.05;7.25;;;17.40;99.90;;;;;;5097834;27;20043;-91
2023/09/02 07:09:52;;;;;;;8.52;5.57;;;17.50;99.90;;;;;;5082074;27;20567;-91
2023/09/02 07:12:18;;;;;;;7.07;5.25;;;17.90;99.90;;;;;;5078757;27;20055;-91
2023/09/02 07:14:44;;;;;;;6.38;5.13;;;18.70;99.90;;;;;;5080070;27;20394;-90
2023/09/02 07:17:10;;;;;;;6.40;5.00;;;20.20;99.90;;;;;;5078270;27;20047;-88
2023/09/02 07:19:36;;;;;;;5.90;5.22;;;20.80;99.90;;;;;;5097599;27;20255;-90
2023/09/02 07:22:02;;;;;;;7.05;5.25;;;21.80;99.90;;;;;;5077658;27;20482;-89
2023/09/02 07:24:28;;;;;;;5.43;4.80;;;22.30;99.90;;;;;;5079179;27;20084;-91
2023/09/02 07:26:54;;;;;;;6.93;4.78;;;22.90;99.90;;;;;;5073269;27;20062;-92
2023/09/02 07:29:19;;;;;;;7.18;4.60;;;23.50;99.90;;;;;;5099281;27;20099;-92
2023/09/02 07:31:45;;;;;;;6.07;4.57;;;23.70;99.90;;;;;;5075380;27;20042;-92
2023/09/02 07:34:11;;;;;;;6.32;5.40;;;24.00;99.90;;;;;;5083725;27;20043;-89
2023/09/02 07:36:37;;;;;;;5.30;4.63;;;23.70;99.90;;;;;;5076128;27;20039;-89
2023/09/02 07:39:03;;;;;;;5.63;5.05;;;23.60;99.90;;;;;;5068492;27;20129;-86
2023/09/02 07:41:31;;;;;;;5.35;4.50;;;23.40;99.90;;;;;;5086097;27;20039;-91
2023/09/02 07:43:57;;;;;;;6.95;5.30;;;23.50;99.90;;;;;;5073933;27;20058;-90
2023/09/02 07:46:26;;;;;;;6.88;5.10;;;23.70;99.90;;;;;;5074264;27;20042;-86
2023/09/02 07:48:52;;;;;;;5.80;4.72;;;24.20;99.90;;;;;;5104001;27;20422;-96
2023/09/02 07:51:18;;;;;;;5.55;4.28;;;24.60;99.90;;;;;;5072564;27;20134;-93
2023/09/02 07:53:45;;;;;;;6.53;5.30;;;24.70;99.90;;;;;;5102902;27;20081;-93
2023/09/02 07:56:12;;;;;;;7.57;4.80;;;24.70;99.90;;;;;;5090734;27;20092;-95
2023/09/02 07:58:38;;;;;;;6.15;4.80;;;24.90;99.90;;;;;;5103516;27;20043;-92
2023/09/02 08:01:03;;;;;;;6.73;4.20;;;25.10;99.90;;;;;;5100770;27;20069;-93
2023/09/02 08:03:29;;;;;;;4.87;4.43;;;25.50;99.90;;;;;;5074648;27;20069;-92
2023/09/02 08:05:55;;;;;;;6.57;4.87;;;25.80;99.90;;;;;;5083760;27;20035;-94
2023/09/02 08:08:21;;;;;;;6.43;5.40;;;25.90;99.90;;;;;;5074737;27;20035;-92
2023/09/02 08:10:47;;;;;;;5.25;4.60;;;26.00;99.90;;;;;;5084859;27;20378;-93
2023/09/02 08:13:13;;;;;;;10.13;5.87;;;25.90;99.90;;;;;;5084253;27;20100;-95
2023/09/02 08:15:39;;;;;;;5.90;4.97;;;26.10;99.90;;;;;;5076518;27;20505;-91
2023/09/02 08:18:05;;;;;;;6.05;4.90;;;26.10;99.90;;;;;;5088723;27;20141;-94
2023/09/02 08:20:32;;;;;;;6.73;4.53;;;26.10;99.90;;;;;;5077482;27;20047;-91
2023/09/02 08:22:58;;;;;;;5.65;4.63;;;26.00;99.90;;;;;;5101769;27;20867;-89
2023/09/02 08:25:24;;;;;;;5.78;4.93;;;25.50;99.90;;;;;;5090156;27;20474;-88
2023/09/02 08:27:50;;;;;;;7.40;5.13;;;25.50;99.90;;;;;;5105115;27;20035;-94
2023/09/02 08:30:16;;;;;;;6.18;4.60;;;25.70;99.90;;;;;;5104579;27;20035;-94
2023/09/02 08:32:42;;;;;;;5.80;4.50;;;25.50;99.90;;;;;;5070277;27;20045;-91
2023/09/02 08:35:09;;;;;;;5.60;4.80;;;25.40;99.90;;;;;;5092614;27;20340;-94
2023/09/02 08:37:37;;;;;;;6.10;4.75;;;25.10;99.90;;;;;;5087885;27;20043;-92
2023/09/02 08:40:04;;;;;;;5.43;4.28;;;25.20;99.90;;;;;;5083738;27;20233;-89
2023/09/02 08:42:33;;;;;;;4.88;4.07;;;25.50;99.90;;;;;;5098530;27;20489;-89
2023/09/02 08:45:02;;;;;;;6.00;4.05;;;25.40;99.90;;;;;;5100112;27;20721;-93
2023/09/02 08:47:30;;;;;;;6.45;4.15;;;25.10;99.90;;;;;;5096234;27;20050;-92
2023/09/02 08:49:57;;;;;;;5.43;3.67;;;24.80;99.90;;;;;;5099958;27;20474;-88
2023/09/02 08:52:25;;;;;;;5.28;3.33;;;24.50;99.90;;;;;;5097953;27;20092;-91
2023/09/02 08:54:52;;;;;;;5.40;3.80;;;24.40;99.90;;;;;;5117079;27;20042;-89
2023/09/02 08:57:19;;;;;;;7.10;4.07;;;24.20;99.90;;;;;;5103272;27;20559;-94
2023/09/02 08:59:45;;;;;;;6.00;3.75;;;23.90;99.90;;;;;;5099442;27;20042;-91
2023/09/02 09:02:12;;;;;;;5.30;3.73;;;23.60;99.90;;;;;;5081037;27;20141;-92
2023/09/02 09:04:38;;;;;;;3.97;3.58;;;23.40;99.90;;;;;;5099764;27;20485;-92
2023/09/02 09:07:06;;;;;;;6.03;3.83;;;23.30;99.90;;;;;;5086328;27;20054;-90
2023/09/02 09:09:34;;;;;;;4.70;3.63;;;23.00;99.90;;;;;;5098910;27;20438;-93
2023/09/02 09:12:01;;;;;;;7.65;3.78;;;22.70;99.90;;;;;;5102787;27;20139;-91
2023/09/02 09:14:35;;;;;;;5.65;3.75;;;22.60;99.90;;;;;;5099611;27;20445;-93
2023/09/02 09:17:01;;;;;;;6.18;3.42;;;22.40;99.90;;;;;;5099509;27;20051;-91
2023/09/02 09:19:29;;;;;;;4.93;3.73;;;22.30;99.90;;;;;;5084105;27;20064;-92
2023/09/02 09:21:56;;;;;;;4.55;3.72;;;22.50;99.90;;;;;;5104536;27;20037;-93
2023/09/02 09:24:22;;;;;;;4.97;3.70;;;22.50;99.90;;;;;;5077195;27;20095;-93
2023/09/02 09:26:48;;;;;;;4.63;3.23;;;22.40;99.90;;;;;;5088633;27;20570;-95
2023/09/02 09:29:21;;;;;;;6.30;4.15;;;22.30;99.90;;;;;;5083490;27;20039;-94
2023/09/02 09:31:48;;;;;;;6.13;3.92;;;22.40;99.90;;;;;;5082121;27;20486;-94
2023/09/02 09:34:14;;;;;;;5.68;3.58;;;22.30;99.90;;;;;;5083646;27;20085;-93
2023/09/02 09:36:40;;;;;;;5.43;3.88;;;22.30;99.90;;;;;;5083774;27;20473;-92
2023/09/02 09:39:07;;;;;;;5.63;3.90;;;22.20;99.90;;;;;;5073525;27;20049;-92
2023/09/02 09:41:35;;;;;;;6.25;4.28;;;22.40;99.90;;;;;;5089757;27;20055;-92
2023/09/02 09:44:11;;;;;;;5.28;3.63;;;22.50;99.90;;;;;;5084401;27;20127;-91
2023/09/02 09:46:43;;;;;;;5.70;4.33;;;22.60;99.90;;;;;;5083007;27;20038;-93
2023/09/02 09:49:24;;;;;;;6.07;3.80;;;22.80;99.90;;;;;;5102213;27;20042;-93
2023/09/02 09:52:10;;;;;;;7.22;4.22;;;23.00;99.90;;;;;;5080582;27;20035;-92
2023/09/02 09:54:39;;;;;;;5.70;4.53;;;23.10;99.90;;;;;;5080870;27;20531;-91
2023/09/02 09:57:07;;;;;;;5.32;4.20;;;23.20;99.90;;;;;;5100106;27;20038;-93
2023/09/02 09:59:36;;;;;;;6.80;3.40;;;23.20;99.90;;;;;;5090700;27;20507;-91
2023/09/02 10:02:06;;;;;;;4.60;3.67;;;23.30;99.90;;;;;;5110809;27;20062;-94
2023/09/02 10:04:32;;;;;;;4.75;4.10;;;23.20;99.90;;;;;;5096225;27;20047;-94
2023/09/02 10:07:02;;;;;;;5.95;3.60;;;23.10;99.90;;;;;;5079865;27;20160;-87
2023/09/02 10:09:45;;;;;;;4.93;3.63;;;22.90;99.90;;;;;;5103999;27;20447;-87
2023/09/02 10:12:17;;;;;;;4.93;3.45;;;22.60;99.90;;;;;;5097207;27;20378;-88
2023/09/02 10:14:47;;;;;;;5.63;3.58;;;22.30;99.90;;;;;;5099653;27;20043;-90
2023/09/02 10:17:14;;;;;;;6.18;3.83;;;22.00;99.90;;;;;;5096075;27;20161;-91
2023/09/02 10:19:40;;;;;;;;;;;21.80;99.90;;;;;;5084508;27;20059;-92
2023/09/02 10:22:07;;;;;;;5.40;3.88;;;21.60;99.90;;;;;;5080625;27;20105;-92
2023/09/02 10:24:49;;;;;;;5.20;4.40;;;21.40;99.90;;;;;;5096525;27;20169;-92
2023/09/02 10:27:18;;;;;;;5.57;4.03;;;21.30;99.90;;;;;;5099884;27;20099;-92
2023/09/02 10:29:48;;;;;;;5.35;4.30;;;21.20;99.90;;;;;;5095993;27;20183;-91
2023/09/02 10:32:16;;;;;;;4.82;3.63;;;21.30;99.90;;;;;;5098780;27;20050;-88
2023/09/02 10:35:12;;;;;;;6.40;3.70;;;21.40;99.90;;;;;;5096726;27;20057;-93
2023/09/02 10:37:53;;;;;;;5.65;3.85;;;21.40;99.90;;;;;;5095918;27;20046;-84
2023/09/02 10:40:23;;;;;;;4.95;3.97;;;21.60;99.90;;;;;;5095373;27;20046;-86
2023/09/02 10:42:50;;;;;;;5.40;4.30;;;21.70;99.90;;;;;;5094435;27;20265;-85
2023/09/02 10:45:17;;;;;;;5.15;3.85;;;21.80;99.90;;;;;;5095389;27;20591;-84
2023/09/02 10:47:44;;;;;;;4.45;3.58;;;22.00;99.90;;;;;;5094841;27;20035;-86
2023/09/02 10:50:11;;;;;;;4.15;3.50;;;22.20;99.90;;;;;;5094524;27;20043;-85
2023/09/02 10:52:37;;;;;;;5.22;3.40;;;22.30;99.90;;;;;;5068444;27;20367;-85
2023/09/02 10:55:11;;;;;;;4.03;2.70;;;22.50;99.90;;;;;;5086967;27;20050;-84
2023/09/02 10:57:51;;;;;;;3.38;2.70;;;22.40;99.90;;;;;;5091932;27;20047;-85
2023/09/02 11:00:27;;;;;;;4.03;2.97;;;22.20;99.90;;;;;;5094811;27;20042;-85
2023/09/02 11:02:56;;;;;;;4.97;3.40;;;21.90;99.90;;;;;;5077661;27;20104;-85
2023/09/02 11:05:29;;;;;;;3.42;2.83;;;21.60;99.90;;;;;;5099171;27;20078;-84
2023/09/02 11:07:55;;;;;;;3.55;2.75;;;21.30;99.90;;;;;;5095940;27;20102;-84
2023/09/02 11:10:22;;;;;;;4.35;3.17;;;21.30;99.90;;;;;;5081457;27;20430;-84
2023/09/02 11:13:00;;;;;;;4.10;3.00;;;21.20;99.90;;;;;;5073326;27;20062;-84
2023/09/02 11:15:29;;;;;;;4.35;2.63;;;21.30;99.90;;;;;;5098114;27;20129;-84
2023/09/02 11:17:55;;;;;;;4.32;2.80;;;21.50;99.90;;;;;;5089583;27;20047;-85
2023/09/02 11:20:25;;;;;;;4.05;2.60;;;21.70;99.90;;;;;;5095785;27;20056;-88
2023/09/02 11:23:01;;;;;;;4.80;2.90;;;21.80;99.90;;;;;;5064912;27;20263;-92
2023/09/02 11:25:31;;;;;;;4.70;2.63;;;22.00;99.90;;;;;;5096842;27;20142;-93
2023/09/02 11:28:03;;;;;;;3.33;2.67;;;22.30;99.90;;;;;;5101773;27;20273;-91
2023/09/02 11:30:30;;;;;;;6.20;2.78;;;22.50;99.90;;;;;;5115527;27;20405;-92
2023/09/02 11:32:57;;;;;;;4.75;2.70;;;22.60;99.90;;;;;;5087223;27;20031;-94
2023/09/02 11:35:35;;;;;;;;;;;22.60;99.90;;;;;;5105872;27;20404;-91
2023/09/02 11:38:03;;;;;;;4.15;3.00;;;22.20;99.90;;;;;;5098562;27;20305;-93
2023/09/02 11:40:29;;;;;;;4.18;2.65;;;21.90;99.90;;;;;;5101046;27;20039;-90
2023/09/02 11:43:00;;;;;;;4.30;2.58;;;21.70;99.90;;;;;;5123625;27;20039;-92
2023/09/02 11:45:35;;;;;;;3.40;2.30;;;21.50;99.90;;;;;;5099261;27;20037;-90
2023/09/02 11:48:06;;;;;;;4.75;2.78;;;21.30;99.90;;;;;;5115525;27;20482;-90
2023/09/02 11:50:32;;;;;;;3.70;2.53;;;21.20;99.90;;;;;;5100507;27;20489;-90
2023/09/02 11:52:58;;;;;;;4.05;2.60;;;21.20;99.90;;;;;;5099551;27;20129;-89
2023/09/02 11:55:25;;;;;;;3.80;2.57;;;21.40;99.90;;;;;;5100616;27;20050;-90
2023/09/02 11:57:52;;;;;;;3.47;2.53;;;21.50;99.90;;;;;;5097965;27;21030;-91
2023/09/02 12:00:18;;;;;;;;;;;21.40;99.90;;;;;;5085221;27;20161;-88
2023/09/02 12:02:45;;;;;;;2.92;1.88;;;21.20;99.90;;;;;;5096698;27;19923;-88
2023/09/02 12:05:12;;;;;;;2.83;1.90;;;21.10;99.90;;;;;;5083182;27;20791;-87
2023/09/02 12:07:38;;;;;;;;;;;20.90;99.90;;;;;;5094789;27;20065;-89
2023/09/02 12:10:07;;;;;;;2.58;1.67;;;20.90;99.90;;;;;;5099693;27;19923;-87
2023/09/02 12:12:33;;;;;;;3.10;1.50;;;20.90;99.90;;;;;;5079562;27;20051;-88
2023/09/02 12:15:01;;;;;;;2.70;1.42;;;21.00;99.90;;;;;;5085002;27;20054;-88
2023/09/02 12:17:28;;;;;;;4.38;1.90;;;21.10;99.90;;;;;;5095266;27;20049;-87
2023/09/02 12:19:54;;;;;;;3.83;1.52;;;21.20;99.90;;;;;;5080949;27;20091;-87
2023/09/02 12:22:23;;;;;;;3.30;1.70;;;21.40;99.90;;;;;;5079215;27;20046;-83
2023/09/02 12:24:49;;;;;;;4.90;1.70;;;21.40;99.90;;;;;;5110095;27;20050;-82
2023/09/02 12:27:16;;;;;;;2.10;1.60;;;21.40;99.90;;;;;;5073419;27;20047;-86
2023/09/02 12:29:56;;;;;;;3.13;1.90;;;21.40;99.90;;;;;;5077836;27;20106;-84
2023/09/02 12:32:26;;;;;;;2.60;1.75;;;21.40;99.90;;;;;;5114867;27;20049;-83
2023/09/02 12:34:54;;;;;;;2.42;1.48;;;21.40;99.90;;;;;;5079849;27;20050;-82
2023/09/02 12:37:20;;;;;;;2.95;1.20;;;21.40;99.90;;;;;;5079575;27;20068;-82
2023/09/02 12:39:50;;;;;;;3.20;1.40;;;21.30;99.90;;;;;;5081154;27;20134;-84
2023/09/02 12:42:26;;;;;;;2.80;1.60;;;21.20;99.90;;;;;;5097893;27;20429;-82
2023/09/02 12:44:53;;;;;;;2.90;1.60;;;21.10;99.90;;;;;;5077970;27;20058;-84
2023/09/02 12:47:26;;;;;;;2.72;1.60;;;21.10;99.90;;;;;;5071435;27;20070;-84
2023/09/02 12:49:53;;;;;;;3.22;1.63;;;21.20;99.90;;;;;;5099659;27;20038;-85
2023/09/02 12:52:24;;;;;;;2.45;1.45;;;21.10;99.90;;;;;;5093458;27;20041;-84